createdAt,value
2023-02-18T00:00:58.204Z,6.20
2023-02-18T00:05:50.114Z,6.20
2023-02-18T00:10:42.314Z,6.28
2023-02-18T00:15:38.111Z,6.50
2023-02-18T00:20:29.925Z,6.22
2023-02-18T00:25:21.917Z,6.68
2023-02-18T00:30:14.069Z,5.53
2023-02-18T00:35:06.177Z,6.33
2023-02-18T00:39:57.997Z,5.73
2023-02-18T00:44:49.842Z,6.40
2023-02-18T00:49:41.687Z,6.03
2023-02-18T00:54:33.827Z,6.13
2023-02-18T00:59:25.851Z,6.18
2023-02-18T01:04:18.152Z,5.70
2023-02-18T01:09:10.500Z,5.80
2023-02-18T01:14:03.969Z,5.43
2023-02-18T01:18:55.886Z,6.07
2023-02-18T01:23:47.811Z,5.88
2023-02-18T01:28:41.670Z,5.60
2023-02-18T01:33:33.681Z,5.60
2023-02-18T01:38:26.841Z,5.47
2023-02-18T01:43:20.398Z,6.10
2023-02-18T01:48:17.798Z,5.82
2023-02-18T01:53:09.883Z,5.80
2023-02-18T01:58:02.398Z,5.67
2023-02-18T02:02:54.535Z,6.10
2023-02-18T02:07:47.812Z,6.00
2023-02-18T02:13:01.126Z,6.50
2023-02-18T02:18:12.384Z,6.28
2023-02-18T02:23:29.431Z,5.38
2023-02-18T02:28:27.312Z,6.40
2023-02-18T02:33:37.748Z,5.95
2023-02-18T02:38:45.851Z,5.50
2023-02-18T02:44:01.416Z,5.45
2023-02-18T02:49:09.934Z,6.32
2023-02-18T02:54:29.985Z,6.18
2023-02-18T02:59:26.188Z,5.43
2023-02-18T03:04:43.914Z,5.63
2023-02-18T03:09:43.727Z,6.18
2023-02-18T03:15:00.391Z,6.07
2023-02-18T03:20:00.800Z,5.43
2023-02-18T03:24:55.157Z,5.35
2023-02-18T03:29:52.817Z,5.80
2023-02-18T03:34:49.210Z,5.70
2023-02-18T03:39:44.769Z,5.32
2023-02-18T03:44:36.716Z,4.78
2023-02-18T03:49:28.636Z,6.13
2023-02-18T03:54:20.964Z,4.80
2023-02-18T03:59:13.114Z,5.40
2023-02-18T04:04:05.647Z,5.43
2023-02-18T04:08:57.622Z,5.65
2023-02-18T04:13:49.464Z,5.57
2023-02-18T04:18:41.432Z,5.68
2023-02-18T04:23:33.445Z,5.00
2023-02-18T04:28:25.353Z,5.20
2023-02-18T04:33:17.275Z,5.65
2023-02-18T04:38:10.930Z,4.97
2023-02-18T04:43:03.516Z,4.60
2023-02-18T04:47:55.423Z,5.32
2023-02-18T04:52:47.598Z,4.82
2023-02-18T04:57:39.439Z,5.03
2023-02-18T05:02:31.276Z,4.82
2023-02-18T05:07:23.125Z,4.82
2023-02-18T05:12:15.092Z,4.93
2023-02-18T05:17:06.937Z,4.73
2023-02-18T05:21:58.778Z,5.15
2023-02-18T05:26:50.656Z,5.07
2023-02-18T05:31:42.721Z,4.80
2023-02-18T05:36:34.754Z,5.13
2023-02-18T05:41:26.534Z,5.50
2023-02-18T05:46:18.487Z,5.50
2023-02-18T05:51:10.286Z,5.10
2023-02-18T05:56:02.181Z,5.57
2023-02-18T06:00:54.015Z,5.18
2023-02-18T06:05:47.994Z,5.57
2023-02-18T06:10:40.693Z,5.40
2023-02-18T06:15:32.478Z,5.20
2023-02-18T06:20:24.362Z,6.18
2023-02-18T06:25:16.287Z,5.50
2023-02-18T06:30:08.737Z,5.35
2023-02-18T06:35:00.632Z,5.28
2023-02-18T06:39:52.487Z,5.32
2023-02-18T06:44:44.369Z,5.72
2023-02-18T06:49:36.548Z,5.50
2023-02-18T06:54:28.482Z,5.13
2023-02-18T06:59:20.301Z,4.95
2023-02-18T07:04:12.170Z,5.10
2023-02-18T07:09:04.328Z,5.57
2023-02-18T07:13:56.204Z,5.33
2023-02-18T07:18:48.020Z,5.30
2023-02-18T07:23:40.054Z,4.55
2023-02-18T07:28:31.937Z,5.17
2023-02-18T07:33:23.838Z,5.72
2023-02-18T07:38:15.623Z,5.22
2023-02-18T07:43:07.459Z,5.13
2023-02-18T07:47:59.346Z,4.90
2023-02-18T07:52:51.229Z,4.53
2023-02-18T07:57:57.446Z,5.15
2023-02-18T08:02:49.373Z,6.43
2023-02-18T08:07:41.241Z,11.23
2023-02-18T08:12:33.072Z,12.20
2023-02-18T08:17:24.938Z,11.10
2023-02-18T08:22:16.760Z,11.88
2023-02-18T08:27:08.648Z,13.20
2023-02-18T08:32:00.577Z,16.20
2023-02-18T08:36:52.480Z,15.98
2023-02-18T08:41:44.332Z,17.67
2023-02-18T08:46:37.209Z,18.77
2023-02-18T08:51:30.628Z,24.27
2023-02-18T08:56:22.937Z,28.58
2023-02-18T09:01:15.452Z,26.60
2023-02-18T09:06:08.222Z,20.40
2023-02-18T09:11:04.499Z,16.97
2023-02-18T09:16:01.185Z,16.98
2023-02-18T09:20:57.924Z,15.80
2023-02-18T09:25:49.992Z,15.40
2023-02-18T09:30:42.068Z,13.65
2023-02-18T09:35:34.061Z,14.77
2023-02-18T09:40:32.466Z,16.23
2023-02-18T09:45:24.820Z,14.50
2023-02-18T09:50:30.698Z,14.00
2023-02-18T09:55:39.452Z,17.33
2023-02-18T10:00:37.632Z,20.52
2023-02-18T10:05:31.126Z,17.58
2023-02-18T10:10:38.225Z,15.30
2023-02-18T10:15:32.223Z,15.13
2023-02-18T10:20:28.354Z,27.30
2023-02-18T10:25:23.463Z,33.65
2023-02-18T10:30:15.657Z,23.23
2023-02-18T10:35:34.755Z,21.57
2023-02-18T10:40:29.761Z,15.80
2023-02-18T10:45:32.813Z,17.08
2023-02-18T10:50:38.545Z,18.73
2023-02-18T10:55:45.205Z,21.08
2023-02-18T11:00:40.087Z,19.88
2023-02-18T11:05:35.789Z,18.35
2023-02-18T11:10:31.434Z,17.83
2023-02-18T11:15:25.691Z,18.45
2023-02-18T11:20:38.769Z,18.63
2023-02-18T11:25:36.843Z,18.42
2023-02-18T11:30:40.170Z,17.30
2023-02-18T11:40:29.376Z,18.73
2023-02-18T11:45:29.786Z,19.88
2023-02-18T11:50:22.749Z,16.73
2023-02-18T11:55:18.745Z,22.73
2023-02-18T12:00:43.306Z,43.15
2023-02-18T12:05:37.412Z,31.02
2023-02-18T12:10:36.650Z,36.83
2023-02-18T12:15:56.133Z,39.33
2023-02-18T12:21:16.178Z,71.18
2023-02-18T12:26:31.353Z,99.28
2023-02-18T12:31:42.261Z,76.03
2023-02-18T12:36:40.760Z,70.18
2023-02-18T12:42:00.864Z,25.15
2023-02-18T12:47:12.977Z,27.17
2023-02-18T12:52:32.895Z,56.78
2023-02-18T12:57:24.718Z,29.45
2023-02-18T13:02:28.641Z,24.52
2023-02-18T13:07:35.339Z,27.08
2023-02-18T13:13:01.594Z,29.77
2023-02-18T13:17:57.731Z,25.38
2023-02-18T13:22:50.462Z,23.92
2023-02-18T13:28:00.728Z,25.30
2023-02-18T13:33:04.733Z,25.77
2023-02-18T13:38:18.202Z,22.20
2023-02-18T13:43:35.862Z,22.38
2023-02-18T13:48:28.289Z,23.23
2023-02-18T13:53:22.790Z,22.50
2023-02-18T13:58:19.579Z,22.83
2023-02-18T14:03:36.028Z,21.13
2023-02-18T14:08:36.308Z,20.05
2023-02-18T14:14:00.499Z,20.08
2023-02-18T14:18:59.997Z,18.45
2023-02-18T14:23:51.972Z,20.80
2023-02-18T14:28:48.875Z,20.42
2023-02-18T14:34:05.640Z,19.42
2023-02-18T14:39:07.065Z,18.35
2023-02-18T14:44:04.886Z,20.02
2023-02-18T14:49:09.598Z,19.50
2023-02-18T14:54:06.879Z,19.88
2023-02-18T14:59:00.760Z,18.08
2023-02-18T15:03:54.706Z,17.48
2023-02-18T15:08:48.422Z,18.45
2023-02-18T15:13:45.152Z,16.60
2023-02-18T15:18:39.273Z,18.60
2023-02-18T15:23:32.259Z,17.10
2023-02-18T15:33:20.250Z,17.27
2023-02-18T15:38:20.453Z,16.40
2023-02-18T15:43:17.472Z,16.00
2023-02-18T15:48:26.320Z,15.98
2023-02-18T15:53:20.888Z,15.82
2023-02-18T15:58:15.454Z,15.77
2023-02-18T16:03:16.941Z,15.00
2023-02-18T16:08:26.959Z,13.77
2023-02-18T16:13:19.215Z,14.13
2023-02-18T16:18:23.674Z,14.17
2023-02-18T16:23:15.521Z,13.65
2023-02-18T16:28:28.065Z,14.43
2023-02-18T16:33:20.109Z,13.50
2023-02-18T16:38:21.095Z,13.73
2023-02-18T16:43:17.140Z,14.23
2023-02-18T16:48:21.514Z,14.70
2023-02-18T16:53:14.173Z,13.90
2023-02-18T16:58:06.167Z,12.90
2023-02-18T17:03:00.021Z,12.00
2023-02-18T17:07:51.882Z,12.07
2023-02-18T17:12:43.818Z,14.02
2023-02-18T17:17:35.994Z,12.25
2023-02-18T17:22:27.896Z,12.73
2023-02-18T17:27:19.896Z,12.35
2023-02-18T17:32:12.466Z,11.57
2023-02-18T17:37:04.308Z,12.65
2023-02-18T17:41:56.156Z,11.40
2023-02-18T17:46:49.764Z,12.57
2023-02-18T17:51:42.049Z,12.40
2023-02-18T17:56:35.517Z,11.77
2023-02-18T18:01:27.937Z,11.95
2023-02-18T18:06:20.922Z,11.63
2023-02-18T18:16:16.206Z,12.43
2023-02-18T18:21:26.070Z,11.60
2023-02-18T18:26:17.919Z,10.98
2023-02-18T18:31:15.258Z,11.63
2023-02-18T18:36:08.019Z,12.13
2023-02-18T18:41:00.093Z,12.10
2023-02-18T18:45:52.984Z,12.02
2023-02-18T18:50:44.844Z,12.85
2023-02-18T18:55:38.086Z,11.40
2023-02-18T19:00:32.543Z,12.63
2023-02-18T19:05:34.145Z,12.45
2023-02-18T19:10:34.356Z,12.15
2023-02-18T19:15:26.293Z,11.57
2023-02-18T19:20:21.243Z,11.70
2023-02-18T19:25:13.050Z,11.63
2023-02-18T19:30:06.798Z,12.80
2023-02-18T19:34:58.623Z,12.13
2023-02-18T19:39:51.240Z,11.50
2023-02-18T19:44:43.084Z,12.45
2023-02-18T19:49:35.066Z,12.63
2023-02-18T19:54:27.975Z,12.05
2023-02-18T20:04:11.831Z,12.52
2023-02-18T20:09:03.856Z,12.10
2023-02-18T20:13:55.746Z,11.95
2023-02-18T20:18:47.692Z,11.18
2023-02-18T20:23:39.565Z,11.95
2023-02-18T20:28:31.525Z,11.82
2023-02-18T20:33:23.347Z,11.82
2023-02-18T20:38:15.416Z,12.55
2023-02-18T20:43:07.243Z,11.43
2023-02-18T20:47:59.120Z,12.75
2023-02-18T20:52:52.482Z,12.25
2023-02-18T20:57:44.811Z,11.75
2023-02-18T21:02:36.834Z,11.93
2023-02-18T21:07:28.904Z,10.83
2023-02-18T21:12:20.866Z,12.57
2023-02-18T21:17:12.713Z,12.53
2023-02-18T21:22:04.526Z,12.63
2023-02-18T21:26:56.414Z,12.38
2023-02-18T21:31:48.350Z,11.57
2023-02-18T21:36:40.754Z,12.67
2023-02-18T21:41:34.323Z,12.48
2023-02-18T21:46:29.329Z,13.10
2023-02-18T21:51:39.703Z,12.90
2023-02-18T21:56:31.880Z,12.55
2023-02-18T22:01:26.008Z,11.80
2023-02-18T22:06:19.086Z,12.35
2023-02-18T22:11:11.198Z,11.50
2023-02-18T22:16:03.307Z,12.13
2023-02-18T22:20:55.186Z,12.18
2023-02-18T22:25:49.184Z,11.80
2023-02-18T22:30:41.180Z,11.80
2023-02-18T22:35:33.245Z,10.80
2023-02-18T22:40:25.095Z,11.87
2023-02-18T22:45:17.011Z,11.07
2023-02-18T22:50:09.082Z,11.23
2023-02-18T22:55:00.953Z,11.10
2023-02-18T22:59:52.967Z,10.50
2023-02-18T23:04:44.959Z,11.10
2023-02-18T23:09:36.861Z,11.20
2023-02-18T23:14:30.520Z,10.05
2023-02-18T23:19:23.333Z,10.32
2023-02-18T23:29:07.352Z,10.00
2023-02-18T23:34:01.212Z,9.23
2023-02-18T23:38:55.548Z,9.57
2023-02-18T23:43:48.314Z,9.65
2023-02-18T23:48:40.280Z,9.48
2023-02-18T23:53:34.300Z,9.67
2023-02-18T23:58:26.123Z,9.13
